Kilkenny, Ireland

6:10 AM IST on July 24, 2016 (GMT +0100)
Hillcrest, CITYLIMITS | | Change Station

Elev 305 ft 52.67 °N, 7.28 °W | Updated 4 seconds ago

Mostly Cloudy
Mostly Cloudy
56.5 °F
Feels Like 56.5 °F
N
0.0
Wind Variable Wind from West
Gusts 0.0 mph

Today
High -- | Low -- °F
--% Chance of Precip.
Yesterday
High -- | Low -- °F
Precip. -- in
Pressure 30.04 in
Visibility 6.2 miles
Clouds Mostly Cloudy 2800 ft
Dew Point 54 °F
Humidity 92%
Rainfall 0.00 in
Snow Depth Not available.
5:36 AM 9:33 PM
Waning Gibbous, 79% visible
METAR EIME 240500Z 23003KT 9999 BKN028 13/12 Q1017
Pressure 30.04 in
Visibility 6.2 miles
Clouds Mostly Cloudy 2800 ft
Dew Point 54 °F
Humidity 92%
Rainfall 0.00 in
Snow Depth Not available.
5:36 AM 9:33 PM
Waning Gibbous, 79% visible
METAR EIME 240500Z 23003KT 9999 BKN028 13/12 Q1017

10-Day Weather Forecast

×

Almanac

Astronomy

Jul. 24, 2016 Rise Set
Actual Time
Civil Twilight
Nautical Twilight
Astronomical Twilight
Moon
Length of Visible Light
Length of Day
Tomorrow will be .
, % of the Moon is Illuminated

Today's Extremes

Country Highs Country Lows

Community

WunderPhotos

Upload Photos

1,927,031 photos uploaded!

WunderBlog® & News

Nearby

Air Quality

  Air Quality AQ Index Pollutant
Not available.

Snow Depth

Station Depth Elevation

Earthquake Activity

City Distance Mag. Time & Date
Minimum magnitude displayed is 2.5.

Coastal Water Temperatures

Place Temperature

Stations

Nearby Weather Stations

Station Location Temp. Windchill Dew Point Humidity Wind Precip. Elev Updated Type